AirNav   Air Wisconsin Up To $57,000 Bonus
 
 1127 users online  

52I Gross Airport
Pinconning, Michigan, USA

GOING TO PINCONNING?


FAA INFORMATION EFFECTIVE 07 NOVEMBER 2019

Location

FAA Identifier: 52I
Lat/Long: 43-50-48.6200N 084-00-46.0600W
43-50.810333N 084-00.767667W
43.8468389,-84.0127944
(estimated)
Elevation: 618 ft. / 188 m (estimated)
Variation: 06W (1985)
From city: 3 miles W of PINCONNING, MI
Time zone: UTC -5 (UTC -4 during Daylight Saving Time)
Zip code: 48650

Airport Operations

Airport use: Open to the public
Activation date: 11/1999
Control tower: no
ARTCC: CLEVELAND CENTER
FSS: LANSING FLIGHT SERVICE STATION
NOTAMs facility: LAN (NOTAM-D service available)
Attendance: IREG
FOR ARPT ATTENDANCE CALL 989-239-9878.
Wind indicator: yes
Segmented circle: no
Lights: ACTVT LIRL RY 09/27 - CTAF.

Airport Communications

CTAF: 122.9
WX AWOS-3 at IKW (15 nm SW): 119.525 (989-835-5841)
WX AWOS-3 at MBS (19 nm S): PHONE 989-695-2488

Nearby radio navigation aids

VOR radial/distance  VOR name  Freq  Var
MBSr011/19.1SAGINAW VOR/DME112.9003W
MOPr072/34.2MOUNT PLEASANT VOR/DME110.6005W

Airport Services

Fuel available: FUEL AVBL EMERG ONLY.
Parking: tiedowns
Bottled oxygen: NONE
Bulk oxygen: NONE

Runway Information

Runway 9/27

Dimensions: 3300 x 100 ft. / 1006 x 30 m
Surface: turf, in good condition
Runway edge lights: low intensity
Runway edge markings: 09/27 MKD WITH 3 FT YELLOW CONES.
RUNWAY 9  RUNWAY 27
Latitude: 43-50.815000N43-50.805667N
Longitude: 084-01.143000W084-00.392500W
Elevation: 618.0 ft.611.0 ft.
Traffic pattern: leftleft
Runway heading: 097 magnetic, 091 true277 magnetic, 271 true
Displaced threshold: 200 ft.442 ft.
Obstructions: 80 ft. trees, 1405 ft. from runway, 17:1 slope to clear40 ft. tree, 90 ft. right of centerline
APCH RATIO AT DSPLCD THLD 11:1 OVER 40 FT TREE, 460 FT DST, 90 FT R; 32:1 OVER 15 FT ROAD 460 DST, 0 BOTH BASED ON STRAIGHT OUT.

Airport Ownership and Management from official FAA records

Ownership: Privately-owned
Owner: CARL A. GROSS INC
706 5TH ST, BOX 31
PINCONNING, MI 48650
Phone 989-879-5048
Manager: JAMES M. KLEIN
706 5TH ST BOX 31
PINCONNING, MI 48650
Phone 989-708-7583
ASST AMGR MICHAEL HARTMAN 989-239-9878.

Airport Operational Statistics

Aircraft based on the field: 21
Single engine airplanes: 20
Ultralights: 1
    
Aircraft operations: avg 21/month *
60% local general aviation
40% transient general aviation
* for 12-month period ending 31 December 2017

Additional Remarks

FOR SNOW REMOVAL COND CALL 989-239-9878.
BLDGS IN PRIM SFC EAST END, 70 FT N & 93 FT S OF CNTRLN; 15-45 FT TREES 95 FT S OF CNTRLN WEST END.
-6 FT DITCH 15 FT WEST OF RY 09.
ULTRA LIGHTS USE 500' TPA.
FOR CD CTC GREAT LAKES APCH AT 269-459-3345, WHEN APCH CLSD CTC CLEVELAND ARTCC AT 440-774-0490

Instrument Procedures

There are no published instrument procedures at 52I.

Some nearby airports with instrument procedures:

KIKW - Jack Barstow Airport (15 nm SW)
3CM - James Clements Municipal Airport (19 nm S)
KMBS - MBS International Airport (19 nm S)
KGDW - Gladwin Zettel Memorial Airport (21 nm W)
Y31 - West Branch Community Airport (25 nm N)
 
Loc | Ops | Rwys | IFR | FBO | Links
Com | Nav | Svcs | Stats | Notes
Area around 52I (Gross Airport)
 
Road maps at: MapQuest Bing Google
 
Aerial photo
WARNING: Photo may not be current or correct
Aerial photo of 52I (Gross Airport)
Photo by: Tom Taylor, Essexville, MI

Do you have a better or more recent aerial photo of Gross Airport that you would like to share? If so, please send us your photo.

 
Sectional chart

 
Airport distance calculator
Flying to Gross Airport? Find the distance to fly.

From to 52I

Sunrise and sunset
Times for 17-Nov-2019
 Local
(UTC-5)
 Zulu
(UTC)
Morning civil twilight07:0312:03
Sunrise07:3412:34
Sunset17:0822:08
Evening civil twilight17:3922:39

Current date and time
Zulu (UTC)  17-Nov-2019 16:04:06
Local (UTC-5)  17-Nov-2019 11:04:06
 
METAR
KIKW 
15nm SW 
171556Z AUTO 00000KT 10SM CLR 00/M06 A3009 RMK AO2 T10011056
KMBS 
19nm S 
171553Z 11004KT 10SM CLR M01/M06 A3010 RMK AO2 SLP203 T10061061
KY31 
25nm N 
171555Z AUTO 00000KT 10SM CLR M01/M04 A3008 RMK AO2 T10101041
KHYX 
26nm S 
171556Z AUTO 00000KT 10SM CLR M01/M06 A3010 RMK AO2
TAF
KMBS 
19nm S 
171130Z 1712/1812 12005KT P6SM SCT200 FM171400 15007KT P6SM BKN250 FM172000 14006KT P6SM OVC100 FM172200 15006KT P6SM OVC050 FM180400 16005KT P6SM OVC025
NOTAMs
Click for the latest NOTAMs
NOTAMs are issued by the DoD/FAA and will open in a separate window not controlled by AirNav.

 

 
 

Would you like to see your business listed on this page?

 If your business provides an interesting product or service to pilots, flight crews, aircraft, or users of the Gross Airport, you should consider listing it here.  To start the listing process, click on the button below
 
Add a business
 

Other Pages about Gross Airport

Page from the Michigan Airport Directory (PDF)
 
Update a link
 
Copyright © AirNav, LLC. All rights reserved. Privacy Policy  Contact